Time;durP1;ratioP1;P1;durP2;ratioP2;P2;SDS_P1;SDS_P2;PMS_P1;PMS_P2;Temp;Humidity;BMP_temperature;BMP_pressure;BME280_temperature;BME280_humidity;BME280_pressure;Samples;Min_cycle;Max_cycle;Signal;HPM_P1;HPM_P2
2023/04/21 00:02:01;;;;;;;;;;;22.30;35.70;;;;;;6174998;28;20463;-44
2023/04/21 00:05:03;;;;;;;0.30;0.30;;;21.80;35.80;;;;;;6174202;28;20019;-49
2023/04/21 00:08:07;;;;;;;0.30;0.30;;;22.10;35.80;;;;;;6173824;28;20053;-47
2023/04/21 00:11:09;;;;;;;0.50;0.40;;;22.00;35.90;;;;;;6174455;28;20050;-49
2023/04/21 00:14:10;;;;;;;0.47;0.40;;;22.20;36.20;;;;;;6173945;28;20502;-47
2023/04/21 00:17:11;;;;;;;;;;;21.80;36.10;;;;;;6174311;28;20051;-46
2023/04/21 00:20:13;;;;;;;0.95;0.57;;;21.70;36.40;;;;;;6174361;28;19922;-45
2023/04/21 00:23:15;;;;;;;0.45;0.35;;;22.10;36.40;;;;;;6173826;28;20039;-45
2023/04/21 00:26:16;;;;;;;0.63;0.40;;;22.10;36.60;;;;;;6177429;28;20464;-46
2023/04/21 00:29:19;;;;;;;0.43;0.30;;;22.10;36.80;;;;;;6177775;28;20051;-45
2023/04/21 00:32:21;;;;;;;0.40;0.38;;;22.00;36.70;;;;;;6178113;28;20051;-44
2023/04/21 00:35:25;;;;;;;0.40;0.40;;;22.10;36.80;;;;;;6177809;28;20150;-49
2023/04/21 00:38:27;;;;;;;0.50;0.40;;;21.80;36.70;;;;;;6177482;28;20057;-47
2023/04/21 00:41:28;;;;;;;1.00;0.47;;;22.10;36.90;;;;;;6177997;28;20109;-45
2023/04/21 00:44:30;;;;;;;0.35;0.30;;;22.00;36.90;;;;;;6177596;28;20401;-46
2023/04/21 00:47:32;;;;;;;0.88;0.40;;;21.60;36.80;;;;;;6177922;28;20047;-46
2023/04/21 00:50:34;;;;;;;0.40;0.30;;;21.80;36.80;;;;;;6175777;28;20070;-45
2023/04/21 00:53:36;;;;;;;;;;;22.00;37.20;;;;;;6177957;28;20506;-45
2023/04/21 00:56:38;;;;;;;0.60;0.40;;;21.70;37.10;;;;;;6177327;28;19929;-45
2023/04/21 00:59:42;;;;;;;0.55;0.38;;;21.90;37.10;;;;;;6177585;28;20055;-46
2023/04/21 01:02:46;;;;;;;0.40;0.40;;;21.80;37.00;;;;;;6177324;28;20050;-47
2023/04/21 01:05:49;;;;;;;0.60;0.60;;;22.00;37.30;;;;;;6177130;28;20051;-50
2023/04/21 01:08:51;;;;;;;0.40;0.40;;;21.50;37.10;;;;;;6177355;28;20042;-45
2023/04/21 01:12:02;;;;;;;0.55;0.55;;;21.80;51.20;;;;;;6177066;28;20038;-43
2023/04/21 01:15:04;;;;;;;0.50;0.50;;;21.90;37.20;;;;;;6175992;28;20042;-48
2023/04/21 01:18:06;;;;;;;0.55;0.47;;;21.60;37.10;;;;;;6177300;28;20055;-47
2023/04/21 01:21:10;;;;;;;;;;;22.00;37.50;;;;;;6177493;28;20051;-44
2023/04/21 01:24:12;;;;;;;0.50;0.50;;;21.60;35.90;;;;;;6177175;28;20397;-46
2023/04/21 01:27:17;;;;;;;0.80;0.60;;;22.00;37.60;;;;;;6176699;28;20035;-49
2023/04/21 01:30:21;;;;;;;0.68;0.68;;;21.50;37.10;;;;;;6175940;28;20039;-45
2023/04/21 01:33:23;;;;;;;;;;;21.80;37.50;;;;;;6177732;28;20070;-50
2023/04/21 01:36:25;;;;;;;1.27;0.60;;;21.50;37.60;;;;;;6177468;28;19922;-47
2023/04/21 01:39:27;;;;;;;0.60;0.50;;;21.80;37.60;;;;;;6177694;28;20046;-49
2023/04/21 01:42:29;;;;;;;0.55;0.40;;;21.50;37.40;;;;;;6177297;28;20043;-46
2023/04/21 01:45:32;;;;;;;0.77;0.70;;;21.90;37.60;;;;;;6175716;28;20567;-45
2023/04/21 01:48:36;;;;;;;1.23;0.70;;;21.80;37.70;;;;;;6177549;28;20035;-47
2023/04/21 01:51:37;;;;;;;0.63;0.60;;;21.80;37.70;;;;;;6177523;28;20552;-45
2023/04/21 01:54:39;;;;;;;0.60;0.60;;;21.40;37.60;;;;;;6177019;28;20049;-47
2023/04/21 01:57:41;;;;;;;0.70;0.70;;;21.90;37.80;;;;;;6176504;28;20050;-48
2023/04/21 02:00:42;;;;;;;;;;;21.70;37.80;;;;;;6178036;28;20506;-49
2023/04/21 02:03:44;;;;;;;0.70;0.50;;;21.40;37.80;;;;;;6176605;28;19929;-45
2023/04/21 02:06:49;;;;;;;0.88;0.60;;;21.50;37.70;;;;;;6177213;28;20047;-48
2023/04/21 02:09:51;;;;;;;1.00;0.70;;;21.40;37.50;;;;;;6176978;28;20065;-49
2023/04/21 02:12:52;;;;;;;0.55;0.40;;;21.70;37.90;;;;;;6176433;28;20051;-46
2023/04/21 02:15:57;;;;;;;0.70;0.70;;;21.30;37.70;;;;;;6176371;28;20062;-47
2023/04/21 02:19:13;;;;;;;0.80;0.70;;;21.30;37.70;;;;;;6176678;28;20046;-45
2023/04/21 02:22:14;;;;;;;;;;;21.60;37.90;;;;;;6177300;28;20050;-47
2023/04/21 02:25:18;;;;;;;0.52;0.40;;;21.40;38.10;;;;;;6176176;28;19926;-47
2023/04/21 02:28:20;;;;;;;0.70;0.60;;;21.70;38.00;;;;;;6176697;28;20443;-45
2023/04/21 02:31:22;;;;;;;0.70;0.60;;;21.70;38.10;;;;;;6176243;28;20050;-47
2023/04/21 02:34:23;;;;;;;0.68;0.68;;;21.60;38.00;;;;;;6176001;28;20047;-47
2023/04/21 02:37:25;;;;;;;;;;;21.30;37.90;;;;;;6176822;28;20391;-45
2023/04/21 02:40:28;;;;;;;0.77;0.63;;;21.20;38.10;;;;;;6176138;28;20348;-49
2023/04/21 02:43:30;;;;;;;0.60;0.60;;;21.40;38.00;;;;;;6175921;28;20043;-45
2023/04/21 02:46:33;;;;;;;0.60;0.60;;;21.40;38.00;;;;;;6174949;28;20058;-46
2023/04/21 02:49:38;;;;;;;1.00;0.90;;;21.50;38.10;;;;;;6175721;28;20043;-47
2023/04/21 02:52:40;;;;;;;0.70;0.70;;;21.70;38.10;;;;;;6175727;28;20043;-48
2023/04/21 02:55:42;;;;;;;;;;;21.20;38.00;;;;;;6175959;28;20415;-47
2023/04/21 02:58:43;;;;;;;0.80;0.80;;;21.20;38.20;;;;;;6175886;28;19922;-44
2023/04/21 03:01:46;;;;;;;;;;;21.40;38.20;;;;;;6176289;28;20046;-48
2023/04/21 03:04:48;;;;;;;1.02;0.82;;;21.20;38.10;;;;;;6175292;28;19929;-47
2023/04/21 03:07:49;;;;;;;0.60;0.60;;;21.30;38.20;;;;;;6175887;28;20399;-50
2023/04/21 03:10:52;;;;;;;0.55;0.52;;;21.30;38.10;;;;;;6175406;28;20043;-48
2023/04/21 03:13:56;;;;;;;0.52;0.50;;;21.20;38.10;;;;;;6174036;28;20055;-48
2023/04/21 03:16:57;;;;;;;0.73;0.65;;;21.40;38.30;;;;;;6175446;28;20043;-44
2023/04/21 03:19:59;;;;;;;;;;;21.40;38.30;;;;;;6175477;28;20047;-47
2023/04/21 03:23:00;;;;;;;0.77;0.70;;;21.20;38.40;;;;;;6175766;28;20389;-44
2023/04/21 03:26:06;;;;;;;;;;;21.30;38.30;;;;;;6175698;28;20062;-46
2023/04/21 03:29:07;;;;;;;0.70;0.60;;;21.00;38.20;;;;;;6174970;28;19922;-47
2023/04/21 03:32:09;;;;;;;0.70;0.70;;;21.50;38.50;;;;;;6175566;28;20049;-44
2023/04/21 03:35:11;;;;;;;1.17;0.63;;;21.30;38.30;;;;;;6175388;28;20050;-49
2023/04/21 03:38:12;;;;;;;;;;;21.40;38.30;;;;;;6175244;28;20085;-48
2023/04/21 03:41:14;;;;;;;;;;;21.10;38.40;;;;;;6175153;28;19926;-44
2023/04/21 03:44:16;;;;;;;0.77;0.60;;;21.10;38.40;;;;;;6174963;28;19954;-44
2023/04/21 03:47:18;;;;;;;1.25;0.95;;;21.40;38.60;;;;;;6174705;28;20057;-46
2023/04/21 03:50:21;;;;;;;0.77;0.60;;;21.50;38.60;;;;;;6174468;28;20539;-46
2023/04/21 03:53:22;;;;;;;0.80;0.73;;;21.30;38.40;;;;;;6174956;28;20045;-46
2023/04/21 03:56:24;;;;;;;0.70;0.60;;;21.20;38.40;;;;;;6175062;28;20046;-46
2023/04/21 03:59:26;;;;;;;0.70;0.65;;;21.50;38.50;;;;;;6174249;28;20636;-46
2023/04/21 04:02:28;;;;;;;;;;;21.30;38.50;;;;;;6175142;28;20046;-44
2023/04/21 04:05:30;;;;;;;0.68;0.60;;;21.00;38.40;;;;;;6174494;28;19922;-47
2023/04/21 04:08:31;;;;;;;0.73;0.70;;;21.10;38.40;;;;;;6174338;28;20498;-47
2023/04/21 04:11:36;;;;;;;;;;;21.10;38.30;;;;;;6175152;28;20483;-49
2023/04/21 04:14:38;;;;;;;1.05;0.60;;;21.50;38.60;;;;;;6174435;28;19922;-47
2023/04/21 04:17:40;;;;;;;0.70;0.70;;;21.30;38.30;;;;;;6174260;28;20495;-46
2023/04/21 04:20:41;;;;;;;;;;;20.90;38.30;;;;;;6174944;28;20097;-45
2023/04/21 04:23:44;;;;;;;0.80;0.68;;;21.00;38.70;;;;;;6174644;28;19949;-45
2023/04/21 04:26:46;;;;;;;0.80;0.77;;;21.40;36.50;;;;;;6157032;28;20093;-48
2023/04/21 04:29:49;;;;;;;0.77;0.70;;;21.00;38.30;;;;;;6174609;28;20051;-50
2023/04/21 04:32:51;;;;;;;0.73;0.73;;;21.50;38.50;;;;;;6174253;28;20046;-46
2023/04/21 04:35:53;;;;;;;0.65;0.60;;;21.30;38.40;;;;;;6172664;28;20189;-46
2023/04/21 04:38:55;;;;;;;0.70;0.60;;;21.40;38.50;;;;;;6173731;28;20053;-47
2023/04/21 04:41:57;;;;;;;0.85;0.75;;;21.30;38.30;;;;;;6173962;28;20047;-47
2023/04/21 04:45:00;;;;;;;1.00;0.68;;;21.20;38.30;;;;;;6173770;28;20097;-44
2023/04/21 04:48:02;;;;;;;0.82;0.80;;;21.30;38.30;;;;;;6173600;28;20047;-45
2023/04/21 04:51:04;;;;;;;1.00;0.93;;;21.00;38.20;;;;;;6174128;28;20043;-47
2023/04/21 04:54:06;;;;;;;0.70;0.70;;;21.30;38.20;;;;;;6173024;28;20039;-48
2023/04/21 04:57:09;;;;;;;0.70;0.65;;;21.00;38.10;;;;;;6173426;28;20039;-48
2023/04/21 05:00:11;;;;;;;0.80;0.80;;;21.00;38.00;;;;;;6174033;28;20483;-46
2023/04/21 05:03:12;;;;;;;0.95;0.90;;;21.30;38.20;;;;;;6173745;28;20039;-45
2023/04/21 05:06:14;;;;;;;1.00;0.90;;;21.70;38.60;;;;;;6173326;28;20117;-46
2023/04/21 05:09:16;;;;;;;;;;;21.00;38.10;;;;;;6174059;28;20039;-46
2023/04/21 05:12:18;;;;;;;0.47;0.45;;;21.00;38.30;;;;;;6176649;28;19922;-45
2023/04/21 05:15:21;;;;;;;2.17;0.80;;;20.80;38.00;;;;;;6177979;28;20117;-49
2023/04/21 05:18:23;;;;;;;1.00;0.90;;;21.30;38.20;;;;;;6143866;28;20511;-46
2023/04/21 05:21:26;;;;;;;0.77;0.77;;;21.00;38.00;;;;;;6176247;28;20042;-46
2023/04/21 05:24:27;;;;;;;0.70;0.60;;;21.10;38.00;;;;;;6175977;28;20074;-46
2023/04/21 05:27:29;;;;;;;;;;;21.20;38.10;;;;;;6177972;28;20150;-46
2023/04/21 05:30:34;;;;;;;0.85;0.70;;;21.20;38.40;;;;;;6176514;28;19939;-44
2023/04/21 05:33:37;;;;;;;1.20;0.93;;;21.00;38.10;;;;;;6176933;28;20117;-49
2023/04/21 05:36:41;;;;;;;0.70;0.70;;;21.10;38.20;;;;;;6177536;28;20049;-47
2023/04/21 05:39:45;;;;;;;0.73;0.73;;;21.20;38.10;;;;;;6177007;28;20043;-48
2023/04/21 05:42:50;;;;;;;1.10;1.00;;;21.30;36.20;;;;;;6176886;28;20049;-49
2023/04/21 05:45:52;;;;;;;0.77;0.77;;;20.90;38.10;;;;;;6177111;28;20097;-48
2023/04/21 05:48:54;;;;;;;0.93;0.80;;;21.30;38.30;;;;;;6176840;28;20130;-50
2023/04/21 05:51:55;;;;;;;0.63;0.60;;;21.20;38.20;;;;;;6177420;28;20388;-48
2023/04/21 05:54:57;;;;;;;;;;;21.30;38.20;;;;;;6177323;28;20071;-45
2023/04/21 05:57:58;;;;;;;0.60;0.57;;;21.40;38.60;;;;;;6177189;28;20294;-46
2023/04/21 06:01:00;;;;;;;0.80;0.73;;;21.00;38.20;;;;;;6176625;28;20077;-47
2023/04/21 06:04:01;;;;;;;;;;;21.30;38.40;;;;;;6177188;28;20070;-49
2023/04/21 06:07:05;;;;;;;;;;;20.90;38.30;;;;;;6177023;28;20314;-48
2023/04/21 06:10:07;;;;;;;0.60;0.60;;;21.40;38.50;;;;;;6176092;28;20128;-48
2023/04/21 06:13:09;;;;;;;0.60;0.47;;;20.90;38.00;;;;;;6176495;28;20094;-45
2023/04/21 06:16:11;;;;;;;0.65;0.60;;;21.10;38.30;;;;;;6176382;28;20520;-50
2023/04/21 06:19:12;;;;;;;0.40;0.40;;;21.10;38.30;;;;;;6176257;28;20054;-44
2023/04/21 06:22:16;;;;;;;;;;;20.90;38.90;;;;;;6176514;28;20035;-51
2023/04/21 06:25:18;;;;;;;0.40;0.40;;;21.30;38.60;;;;;;6176158;28;19929;-50
2023/04/21 06:28:23;;;;;;;0.82;0.60;;;21.30;38.60;;;;;;6175781;28;20411;-49
2023/04/21 06:31:24;;;;;;;0.60;0.60;;;21.00;36.30;;;;;;6175652;28;20042;-49
2023/04/21 06:34:30;;;;;;;0.60;0.55;;;21.30;38.50;;;;;;6176430;28;20439;-48
2023/04/21 06:37:31;;;;;;;;;;;21.10;38.40;;;;;;6176830;28;20038;-48
2023/04/21 06:40:36;;;;;;;0.63;0.57;;;21.50;38.90;;;;;;6175644;28;19926;-48
2023/04/21 06:43:38;;;;;;;0.52;0.45;;;21.20;38.20;;;;;;6175426;28;20081;-44
2023/04/21 06:46:39;;;;;;;0.40;0.40;;;21.20;38.60;;;;;;6175530;28;20407;-45
2023/04/21 06:49:41;;;;;;;0.63;0.60;;;21.20;38.50;;;;;;6175088;28;20051;-46
2023/04/21 06:52:42;;;;;;;;;;;21.20;38.80;;;;;;6175114;28;20055;-48
2023/04/21 06:55:44;;;;;;;1.20;0.70;;;21.20;38.80;;;;;;6175322;28;19926;-46
2023/04/21 06:58:46;;;;;;;;;;;21.00;38.60;;;;;;6175920;28;20039;-49
2023/04/21 07:01:51;;;;;;;;;;;21.00;38.90;;;;;;6175360;28;19992;-45
2023/04/21 07:04:52;;;;;;;0.43;0.40;;;21.40;39.00;;;;;;6175420;28;20286;-46
2023/04/21 07:07:58;;;;;;;;;;;21.20;38.70;;;;;;6175651;28;20117;-47
2023/04/21 07:10:59;;;;;;;0.70;0.50;;;21.50;39.20;;;;;;6175280;28;19926;-48
2023/04/21 07:14:02;;;;;;;0.60;0.60;;;21.00;38.50;;;;;;6175180;28;20118;-48
2023/04/21 07:17:04;;;;;;;0.98;0.70;;;21.20;38.90;;;;;;6175059;28;20423;-46
2023/04/21 07:20:07;;;;;;;0.57;0.52;;;21.30;38.80;;;;;;6175590;28;20042;-45
2023/04/21 07:23:09;;;;;;;0.80;0.70;;;21.20;38.80;;;;;;6174647;28;20051;-46
2023/04/21 07:26:11;;;;;;;;;;;21.50;39.00;;;;;;6175517;28;20047;-44
2023/04/21 07:29:13;;;;;;;0.60;0.50;;;21.50;40.00;;;;;;6174964;28;20246;-46
2023/04/21 07:32:15;;;;;;;0.57;0.45;;;21.30;38.90;;;;;;6174594;28;20173;-46
2023/04/21 07:35:16;;;;;;;0.60;0.60;;;21.10;39.00;;;;;;6174785;28;20046;-46
2023/04/21 07:38:18;;;;;;;0.77;0.70;;;21.50;39.00;;;;;;6175366;28;20051;-49
2023/04/21 07:41:20;;;;;;;;;;;21.00;38.90;;;;;;6174929;28;20043;-44
2023/04/21 07:44:22;;;;;;;0.90;0.63;;;21.40;39.20;;;;;;6174846;28;20343;-48
2023/04/21 07:47:24;;;;;;;0.98;0.65;;;21.40;39.10;;;;;;6174602;28;20109;-47
2023/04/21 07:50:25;;;;;;;0.80;0.50;;;21.10;38.90;;;;;;6174349;28;20050;-48
2023/04/21 07:53:27;;;;;;;0.50;0.50;;;21.30;39.00;;;;;;6174536;28;20475;-51
2023/04/21 07:56:28;;;;;;;1.38;0.63;;;20.90;38.80;;;;;;6174748;28;20038;-47
2023/04/21 07:59:30;;;;;;;;;;;21.30;39.10;;;;;;6174613;28;20053;-48
2023/04/21 08:02:31;;;;;;;;;;;21.30;39.30;;;;;;6189315;28;19922;-48
2023/04/21 08:05:33;;;;;;;0.57;0.52;;;21.40;39.30;;;;;;6174216;28;19922;-50
2023/04/21 08:08:40;;;;;;;0.60;0.50;;;21.50;39.20;;;;;;6174001;28;20050;-50
2023/04/21 08:11:41;;;;;;;;;;;21.10;38.90;;;;;;6173149;28;20579;-46
2023/04/21 08:14:43;;;;;;;0.70;0.70;;;21.40;39.10;;;;;;6174043;28;19922;-45
2023/04/21 08:17:45;;;;;;;0.55;0.55;;;21.30;38.90;;;;;;6173934;28;20122;-50
2023/04/21 08:20:47;;;;;;;0.70;0.70;;;21.40;38.90;;;;;;6172788;28;20482;-49
2023/04/21 08:23:49;;;;;;;1.45;0.80;;;21.40;39.00;;;;;;6174272;28;20042;-49
2023/04/21 08:26:51;;;;;;;0.80;0.63;;;21.10;38.50;;;;;;6174368;28;20035;-49
2023/04/21 08:29:53;;;;;;;;;;;21.20;38.70;;;;;;6174554;28;20407;-47
2023/04/21 08:32:54;;;;;;;;;;;21.50;39.10;;;;;;6174161;28;19922;-50
2023/04/21 08:35:56;;;;;;;0.90;0.80;;;21.90;39.40;;;;;;6173495;28;19926;-48
2023/04/21 08:39:12;;;;;;;0.70;0.60;;;21.30;38.40;;;;;;6174019;28;20122;-51
2023/04/21 08:42:14;;;;;;;0.82;0.70;;;21.50;38.70;;;;;;6173982;28;20046;-48
2023/04/21 08:45:16;;;;;;;0.70;0.70;;;21.10;38.20;;;;;;6174003;28;20046;-47
2023/04/21 08:48:20;;;;;;;0.70;0.60;;;21.50;38.60;;;;;;6177988;28;20566;-50
2023/04/21 08:51:23;;;;;;;0.73;0.70;;;21.50;38.30;;;;;;6177903;28;20064;-47
2023/04/21 08:54:25;;;;;;;0.70;0.70;;;21.20;38.10;;;;;;6177350;28;20050;-48
2023/04/21 08:57:26;;;;;;;1.00;0.82;;;21.30;38.10;;;;;;6179947;28;20047;-41
2023/04/21 09:00:28;;;;;;;;;;;21.20;38.10;;;;;;6178450;28;20042;-42
2023/04/21 09:03:29;;;;;;;;;;;21.70;38.70;;;;;;6179204;28;19922;-42
2023/04/21 09:06:42;;;;;;;0.80;0.65;;;21.50;38.60;;;;;;6177539;28;20374;-44
2023/04/21 09:09:57;;;;;;;0.98;0.60;;;21.30;38.00;;;;;;6177367;28;20113;-42
2023/04/21 09:13:05;;;;;;;0.57;0.52;;;21.50;38.00;;;;;;6186062;23;20043;-44
2023/04/21 09:16:17;;;;;;;0.80;0.68;;;21.40;37.80;;;;;;6176883;28;20047;-44
2023/04/21 09:19:18;;;;;;;;;;;21.30;37.70;;;;;;6178126;28;20493;-48
2023/04/21 09:22:20;;;;;;;;;;;21.60;38.20;;;;;;6178121;28;20279;-42
2023/04/21 09:25:25;;;;;;;0.52;0.45;;;21.80;38.40;;;;;;6177359;28;20298;-47
2023/04/21 09:28:30;;;;;;;0.77;0.73;;;21.40;37.60;;;;;;6178337;28;20042;-47
2023/04/21 09:31:35;;;;;;;1.55;0.73;;;21.50;37.20;;;;;;6177179;28;20039;-49
2023/04/21 09:34:42;;;;;;;0.75;0.65;;;21.40;37.00;;;;;;6166741;28;20450;-45
2023/04/21 09:37:43;;;;;;;1.23;0.60;;;21.80;37.10;;;;;;6192922;28;20047;-46
2023/04/21 09:40:55;;;;;;;1.50;0.47;;;21.80;36.90;;;;;;6182286;28;20049;-46
2023/04/21 09:44:00;;;;;;;0.82;0.50;;;21.80;36.80;;;;;;6179632;28;20050;-47
2023/04/21 09:47:03;;;;;;;0.60;0.57;;;21.80;36.60;;;;;;6179947;28;20043;-47
2023/04/21 09:50:07;;;;;;;0.93;0.65;;;21.70;36.40;;;;;;6177039;28;20051;-44
2023/04/21 09:53:15;;;;;;;0.65;0.65;;;21.80;36.50;;;;;;6189968;28;20046;-45
2023/04/21 09:56:21;;;;;;;0.70;0.63;;;21.90;36.30;;;;;;6182239;28;20054;-49
2023/04/21 09:59:28;;;;;;;1.23;0.60;;;21.90;36.10;;;;;;6177251;28;20188;-43
2023/04/21 10:02:33;;;;;;;1.10;0.70;;;21.50;35.80;;;;;;6177626;28;20372;-46
2023/04/21 10:05:38;;;;;;;0.93;0.80;;;21.70;35.90;;;;;;6176011;28;20550;-52
2023/04/21 10:08:46;;;;;;;1.10;0.80;;;21.70;35.70;;;;;;6176676;28;20483;-49
2023/04/21 10:11:47;;;;;;;1.75;0.80;;;21.80;35.70;;;;;;6176650;28;20065;-51
2023/04/21 10:14:51;;;;;;;1.33;0.70;;;22.10;35.70;;;;;;6177025;28;20053;-51
2023/04/21 10:18:14;;;;;;;1.23;0.70;;;22.10;35.40;;;;;;6175832;28;20070;-51
2023/04/21 10:21:20;;;;;;;2.25;0.57;;;22.00;35.30;;;;;;6175016;28;20047;-52
2023/04/21 10:24:28;;;;;;;1.00;0.70;;;21.90;35.20;;;;;;6175054;28;20462;-52
2023/04/21 10:27:32;;;;;;;0.80;0.60;;;21.80;35.00;;;;;;6175884;28;20058;-51
2023/04/21 10:30:33;;;;;;;0.88;0.70;;;21.90;35.10;;;;;;6174763;28;20042;-51
2023/04/21 10:33:38;;;;;;;1.13;0.70;;;22.20;35.30;;;;;;6176020;28;20046;-52
2023/04/21 10:37:07;;;;;;;1.20;0.70;;;22.00;35.00;;;;;;6175831;28;20083;-51
2023/04/21 10:40:34;;;;;;;0.47;0.47;;;21.90;34.80;;;;;;6176029;28;20042;-52
2023/04/21 10:43:50;;;;;;;0.85;0.70;;;22.30;35.00;;;;;;6174807;28;20051;-51
2023/04/21 10:46:53;;;;;;;0.90;0.50;;;22.00;34.90;;;;;;6174348;28;20047;-52
2023/04/21 10:49:57;;;;;;;0.50;0.45;;;22.20;34.80;;;;;;6174266;28;20054;-52
2023/04/21 10:53:08;;;;;;;0.70;0.50;;;22.20;34.70;;;;;;6174267;28;20495;-50
2023/04/21 10:56:12;;;;;;;0.90;0.65;;;21.90;34.40;;;;;;6175626;28;20047;-51
2023/04/21 10:59:15;;;;;;;0.45;0.40;;;22.00;34.50;;;;;;6175553;28;20074;-52
2023/04/21 11:02:18;;;;;;;1.33;0.47;;;22.30;34.50;;;;;;6175798;28;20042;-52
2023/04/21 11:05:27;;;;;;;0.93;0.50;;;22.00;34.40;;;;;;6174074;28;20046;-52
2023/04/21 11:08:31;;;;;;;0.45;0.40;;;22.00;34.10;;;;;;6174233;28;20519;-52
2023/04/21 11:11:35;;;;;;;0.70;0.45;;;22.20;34.30;;;;;;6175408;28;20046;-50
2023/04/21 11:14:39;;;;;;;0.43;0.43;;;22.20;34.20;;;;;;6175081;28;20089;-49
2023/04/21 11:17:45;;;;;;;0.40;0.40;;;22.40;34.10;;;;;;6173527;28;20081;-51
2023/04/21 11:20:48;;;;;;;0.85;0.40;;;22.10;34.00;;;;;;6175958;28;20560;-51
2023/04/21 11:23:52;;;;;;;0.60;0.50;;;22.40;34.00;;;;;;6174687;28;20491;-52
2023/04/21 11:26:53;;;;;;;0.50;0.40;;;22.10;33.70;;;;;;6174683;28;20057;-50
2023/04/21 11:29:56;;;;;;;;;;;21.90;33.80;;;;;;6175573;28;20410;-51
2023/04/21 11:32:57;;;;;;;0.57;0.52;;;22.30;34.20;;;;;;6174709;28;19965;-52
2023/04/21 11:36:03;;;;;;;0.40;0.40;;;22.40;34.00;;;;;;6173300;28;20503;-51
2023/04/21 11:39:08;;;;;;;0.40;0.40;;;22.30;33.60;;;;;;6173511;28;20054;-52
2023/04/21 11:42:12;;;;;;;0.43;0.43;;;22.00;33.40;;;;;;6174848;28;20075;-51
2023/04/21 11:45:17;;;;;;;0.70;0.57;;;22.40;33.50;;;;;;6174380;28;20058;-50
2023/04/21 11:48:29;;;;;;;0.40;0.40;;;22.20;33.30;;;;;;6174245;28;20046;-51
2023/04/21 11:51:34;;;;;;;0.50;0.40;;;22.30;33.40;;;;;;6174576;28;20039;-51
2023/04/21 11:54:35;;;;;;;0.50;0.50;;;22.50;33.40;;;;;;6174486;28;20039;-51
2023/04/21 11:57:39;;;;;;;0.40;0.40;;;22.20;33.30;;;;;;6174938;28;20471;-48
2023/04/21 12:00:43;;;;;;;0.20;0.20;;;22.40;33.10;;;;;;6174720;28;20066;-50
2023/04/21 12:03:50;;;;;;;1.38;0.30;;;22.20;33.00;;;;;;6173647;28;20054;-52
2023/04/21 12:07:00;;;;;;;0.40;0.40;;;22.80;33.20;;;;;;6172842;28;20070;-51
2023/04/21 12:10:07;;;;;;;0.40;0.40;;;22.60;33.10;;;;;;6172915;28;20134;-52
2023/04/21 12:13:09;;;;;;;0.68;0.30;;;22.20;32.90;;;;;;6157698;28;20046;-51
2023/04/21 12:16:12;;;;;;;0.35;0.35;;;22.30;32.80;;;;;;6173818;28;20047;-51
2023/04/21 12:19:22;;;;;;;0.80;0.60;;;22.40;33.00;;;;;;6175515;28;20046;-52
2023/04/21 12:22:25;;;;;;;0.55;0.45;;;22.50;32.70;;;;;;6180731;28;20039;-51
2023/04/21 12:25:26;;;;;;;0.32;0.30;;;22.40;32.80;;;;;;6181697;28;20047;-50
2023/04/21 12:28:28;;;;;;;;;;;22.60;33.60;;;;;;6182625;28;20502;-49
2023/04/21 12:31:30;;;;;;;0.40;0.30;;;22.70;33.00;;;;;;6181825;28;19929;-51
2023/04/21 12:34:31;;;;;;;0.40;0.40;;;22.30;32.70;;;;;;6181758;28;20376;-48
2023/04/21 12:37:36;;;;;;;0.52;0.50;;;22.40;32.80;;;;;;6182596;28;20081;-50
2023/04/21 12:40:37;;;;;;;0.43;0.43;;;22.40;32.50;;;;;;6181664;28;20050;-50
2023/04/21 12:43:40;;;;;;;0.50;0.50;;;22.70;32.80;;;;;;6181867;28;20042;-51
2023/04/21 12:46:42;;;;;;;;;;;22.40;32.50;;;;;;6181975;28;20050;-52
2023/04/21 12:49:46;;;;;;;0.68;0.50;;;22.60;32.80;;;;;;6181488;28;19929;-49
2023/04/21 12:52:50;;;;;;;0.55;0.50;;;22.80;32.70;;;;;;6181775;28;20047;-52
2023/04/21 12:55:51;;;;;;;0.40;0.40;;;22.80;32.60;;;;;;6181442;28;20069;-52
2023/04/21 12:59:06;;;;;;;0.30;0.30;;;22.70;32.40;;;;;;6181419;28;20042;-52
2023/04/21 13:02:07;;;;;;;0.35;0.35;;;22.70;32.50;;;;;;6181659;28;20043;-51
2023/04/21 13:05:11;;;;;;;0.50;0.50;;;23.10;32.60;;;;;;6181214;28;20042;-51
2023/04/21 13:08:13;;;;;;;4.32;0.70;;;22.90;32.40;;;;;;6181313;28;20047;-52
2023/04/21 13:11:14;;;;;;;0.60;0.40;;;22.60;32.10;;;;;;6181547;28;20502;-51
2023/04/21 13:14:16;;;;;;;;;;;23.00;32.20;;;;;;6181832;28;20498;-52
2023/04/21 13:17:18;;;;;;;0.32;0.32;;;22.90;32.30;;;;;;6181905;28;20255;-50
2023/04/21 13:20:21;;;;;;;0.30;0.30;;;22.70;32.10;;;;;;6181510;28;20047;-52
2023/04/21 13:23:23;;;;;;;0.40;0.40;;;22.90;32.00;;;;;;6181041;28;20057;-51
2023/04/21 13:26:25;;;;;;;0.40;0.30;;;22.80;31.90;;;;;;6180922;28;20051;-47
2023/04/21 13:29:28;;;;;;;0.40;0.40;;;23.10;31.90;;;;;;6181146;28;20509;-52
2023/04/21 13:32:33;;;;;;;0.47;0.45;;;22.90;31.90;;;;;;6177400;28;20078;-50
2023/04/21 13:35:35;;;;;;;1.05;0.30;;;22.70;31.70;;;;;;6176470;28;20145;-51
2023/04/21 13:38:39;;;;;;;2.58;0.28;;;23.20;31.90;;;;;;6175023;28;20043;-52
2023/04/21 13:41:40;;;;;;;0.55;0.50;;;22.70;31.60;;;;;;6177004;28;20034;-53
2023/04/21 13:44:44;;;;;;;0.40;0.30;;;22.90;31.80;;;;;;6176623;28;20043;-48
2023/04/21 13:47:45;;;;;;;0.38;0.30;;;23.10;31.80;;;;;;6176485;28;20047;-51
2023/04/21 13:50:47;;;;;;;0.75;0.30;;;22.70;31.50;;;;;;6177015;28;20066;-51
2023/04/21 13:53:50;;;;;;;0.40;0.30;;;23.30;31.80;;;;;;6176582;28;20090;-51
2023/04/21 13:56:56;;;;;;;0.40;0.40;;;23.10;31.60;;;;;;6176237;28;20503;-50
2023/04/21 13:59:57;;;;;;;0.30;0.30;;;23.00;31.50;;;;;;6176682;28;20059;-51
2023/04/21 14:02:59;;;;;;;0.30;0.30;;;23.30;31.60;;;;;;6176369;28;20093;-52
2023/04/21 14:06:01;;;;;;;0.50;0.30;;;23.00;31.50;;;;;;6176310;28;20051;-52
2023/04/21 14:09:03;;;;;;;0.60;0.40;;;23.00;31.40;;;;;;6176628;28;20047;-52
2023/04/21 14:12:05;;;;;;;0.40;0.40;;;22.90;45.30;;;;;;6177230;28;20047;-49
2023/04/21 14:15:07;;;;;;;0.45;0.22;;;22.90;31.20;;;;;;6176050;28;20051;-52
2023/04/21 14:18:09;;;;;;;0.40;0.40;;;23.10;31.20;;;;;;6176603;28;20062;-52
2023/04/21 14:21:13;;;;;;;0.40;0.40;;;23.20;31.30;;;;;;6176892;28;20149;-52
2023/04/21 14:24:15;;;;;;;0.40;0.40;;;23.10;31.10;;;;;;6176168;28;20171;-52
2023/04/21 14:27:16;;;;;;;0.57;0.40;;;23.30;31.30;;;;;;6176292;28;20106;-51
2023/04/21 14:30:18;;;;;;;0.38;0.38;;;23.40;31.30;;;;;;6176249;28;20039;-50
2023/04/21 14:33:19;;;;;;;0.30;0.30;;;23.20;31.10;;;;;;6175877;28;20102;-50
2023/04/21 14:36:24;;;;;;;0.40;0.30;;;23.20;31.00;;;;;;6176080;28;20078;-52
2023/04/21 14:39:26;;;;;;;0.40;0.40;;;23.40;31.00;;;;;;6176247;28;20043;-51
2023/04/21 14:42:27;;;;;;;0.40;0.40;;;23.40;31.00;;;;;;6174871;28;20451;-52
2023/04/21 14:45:29;;;;;;;;;;;23.40;31.10;;;;;;6175822;28;20043;-52
2023/04/21 14:48:33;;;;;;;0.40;0.40;;;23.30;31.90;;;;;;6175739;28;20301;-51
2023/04/21 14:51:36;;;;;;;1.02;0.30;;;23.50;31.20;;;;;;6175628;28;20042;-50
2023/04/21 14:54:39;;;;;;;0.82;0.50;;;23.50;31.10;;;;;;6175106;28;20166;-48
2023/04/21 14:57:40;;;;;;;0.50;0.40;;;23.10;30.90;;;;;;6175615;28;20388;-52
2023/04/21 15:00:42;;;;;;;0.40;0.40;;;23.30;31.00;;;;;;6175519;28;20047;-50
2023/04/21 15:03:43;;;;;;;0.40;0.40;;;23.40;31.00;;;;;;6175817;28;20491;-51
2023/04/21 15:06:48;;;;;;;0.38;0.38;;;23.40;30.90;;;;;;6175323;28;20085;-52
2023/04/21 15:09:50;;;;;;;0.32;0.30;;;23.60;30.80;;;;;;6175936;28;20506;-51
2023/04/21 15:12:55;;;;;;;0.40;0.30;;;23.70;31.00;;;;;;6175250;28;20406;-52
2023/04/21 15:15:57;;;;;;;0.50;0.50;;;23.60;31.10;;;;;;6175516;28;20443;-49
2023/04/21 15:18:58;;;;;;;0.50;0.50;;;23.70;31.00;;;;;;6175922;28;20043;-51
2023/04/21 15:22:00;;;;;;;0.55;0.40;;;23.60;30.90;;;;;;6175432;28;20407;-52
2023/04/21 15:25:02;;;;;;;0.30;0.30;;;23.70;30.90;;;;;;6175166;28;20093;-51
2023/04/21 15:28:05;;;;;;;0.40;0.40;;;23.70;30.80;;;;;;6173194;28;20050;-52
2023/04/21 15:31:07;;;;;;;0.47;0.43;;;23.80;30.90;;;;;;6174889;28;20439;-50
2023/04/21 15:34:11;;;;;;;1.25;0.47;;;23.70;30.80;;;;;;6175246;28;20484;-50
2023/04/21 15:37:15;;;;;;;1.67;0.60;;;23.70;30.80;;;;;;6175192;28;20089;-52
2023/04/21 15:40:18;;;;;;;0.60;0.60;;;23.80;30.80;;;;;;6175423;28;20387;-52
2023/04/21 15:43:22;;;;;;;2.03;0.68;;;23.40;30.50;;;;;;6174975;28;20043;-52
2023/04/21 15:46:26;;;;;;;0.40;0.40;;;23.60;30.50;;;;;;6175021;28;20403;-50
2023/04/21 15:49:28;;;;;;;0.60;0.60;;;23.70;30.50;;;;;;6174738;28;20043;-49
2023/04/21 15:52:30;;;;;;;0.60;0.60;;;23.90;30.50;;;;;;6175272;28;20043;-51
2023/04/21 15:55:33;;;;;;;1.00;0.80;;;23.90;30.40;;;;;;6174479;28;20050;-52
2023/04/21 15:58:35;;;;;;;0.77;0.77;;;23.60;30.20;;;;;;6174621;28;20132;-49
2023/04/21 16:01:39;;;;;;;0.77;0.70;;;23.80;30.30;;;;;;6175180;28;20049;-51
2023/04/21 16:04:40;;;;;;;0.60;0.60;;;23.80;30.20;;;;;;6174724;28;20043;-49
2023/04/21 16:07:46;;;;;;;0.60;0.60;;;23.80;30.10;;;;;;6174403;28;20399;-51